createdAt,value
2016-10-25T00:01:10.249Z,0
2016-10-25T00:02:20.751Z,0
2016-10-25T00:03:31.400Z,0
2016-10-25T00:04:41.985Z,0
2016-10-25T00:05:52.519Z,0
2016-10-25T00:07:03.082Z,0
2016-10-25T00:08:13.623Z,0
2016-10-25T00:09:24.258Z,0
2016-10-25T00:10:34.789Z,0
2016-10-25T00:11:45.404Z,0
2016-10-25T00:12:55.973Z,0
2016-10-25T00:14:06.480Z,0
2016-10-25T00:15:17.006Z,0
2016-10-25T00:16:27.557Z,0
2016-10-25T00:17:38.095Z,0
2016-10-25T00:18:48.641Z,0
2016-10-25T00:19:59.217Z,0
2016-10-25T00:21:09.747Z,0
2016-10-25T00:22:20.283Z,0
2016-10-25T00:23:30.789Z,0
2016-10-25T00:24:41.827Z,0
2016-10-25T00:25:52.834Z,0
2016-10-25T00:27:03.459Z,0
2016-10-25T00:28:13.981Z,0
2016-10-25T00:29:24.522Z,0
2016-10-25T00:30:35.070Z,0
2016-10-25T00:31:45.656Z,0
2016-10-25T00:32:56.334Z,0
2016-10-25T00:34:06.852Z,0
2016-10-25T00:35:17.383Z,0
2016-10-25T00:36:27.909Z,0
2016-10-25T00:37:38.938Z,0
2016-10-25T00:38:49.502Z,0
2016-10-25T00:39:59.973Z,0
2016-10-25T00:41:10.507Z,0
2016-10-25T00:42:21.092Z,0
2016-10-25T00:43:31.603Z,0
2016-10-25T00:44:42.140Z,0
2016-10-25T00:45:52.704Z,0
2016-10-25T00:47:03.241Z,0
2016-10-25T00:48:13.757Z,0
2016-10-25T00:49:24.303Z,0
2016-10-25T00:50:35.377Z,0
2016-10-25T00:51:45.891Z,0
2016-10-25T00:52:56.382Z,0
2016-10-25T00:54:06.889Z,0
2016-10-25T00:55:17.399Z,0
2016-10-25T00:56:28.008Z,0
2016-10-25T00:57:38.566Z,0
2016-10-25T00:58:49.121Z,0
2016-10-25T00:59:59.653Z,0
2016-10-25T01:01:10.211Z,0
2016-10-25T01:02:20.746Z,0
2016-10-25T01:03:31.244Z,0
2016-10-25T01:04:41.782Z,0
2016-10-25T01:05:52.347Z,0
2016-10-25T01:07:02.869Z,0
2016-10-25T01:08:13.383Z,0
2016-10-25T01:09:23.883Z,0
2016-10-25T01:10:34.386Z,0
2016-10-25T01:11:44.848Z,0
2016-10-25T01:12:55.351Z,0
2016-10-25T01:14:05.942Z,0
2016-10-25T01:15:16.423Z,0
2016-10-25T01:16:26.963Z,0
2016-10-25T01:17:37.488Z,0
2016-10-25T01:18:47.939Z,0
2016-10-25T01:19:58.506Z,0
2016-10-25T01:21:09.023Z,0
2016-10-25T01:22:19.536Z,0
2016-10-25T01:23:30.023Z,0
2016-10-25T01:24:40.521Z,0
2016-10-25T01:25:51.042Z,0
2016-10-25T01:27:01.664Z,0
2016-10-25T01:28:12.249Z,0
2016-10-25T01:29:22.859Z,0
2016-10-25T01:30:33.495Z,0
2016-10-25T01:31:44.170Z,0
2016-10-25T01:32:54.784Z,0
2016-10-25T01:34:05.341Z,0
2016-10-25T01:35:15.918Z,0
2016-10-25T01:36:26.388Z,0
2016-10-25T01:37:36.989Z,0
2016-10-25T01:38:47.442Z,0
2016-10-25T01:39:57.965Z,0
2016-10-25T01:41:08.527Z,0
2016-10-25T01:42:19.110Z,0
2016-10-25T01:43:29.765Z,0
2016-10-25T01:44:40.314Z,0
2016-10-25T01:45:50.860Z,0
2016-10-25T01:47:01.443Z,0
2016-10-25T01:48:11.983Z,0
2016-10-25T01:49:22.530Z,0
2016-10-25T01:50:33.062Z,0
2016-10-25T01:51:43.609Z,0
2016-10-25T01:52:54.175Z,0
2016-10-25T01:54:04.729Z,0
2016-10-25T01:55:15.244Z,0
2016-10-25T01:56:25.780Z,0
2016-10-25T01:57:36.310Z,0
2016-10-25T01:58:46.868Z,0
2016-10-25T01:59:57.376Z,0
2016-10-25T02:01:08.473Z,0
2016-10-25T02:02:19.022Z,0
2016-10-25T02:03:29.552Z,0
2016-10-25T02:04:40.129Z,0
2016-10-25T02:05:50.690Z,0
2016-10-25T02:07:01.305Z,0
2016-10-25T02:08:11.824Z,0
2016-10-25T02:09:22.443Z,0
2016-10-25T02:10:33.513Z,0
2016-10-25T02:11:44.033Z,0
2016-10-25T02:12:54.555Z,0
2016-10-25T02:14:05.104Z,0
2016-10-25T02:15:15.680Z,0
2016-10-25T02:16:26.256Z,0
2016-10-25T02:17:37.326Z,0
2016-10-25T02:18:47.889Z,0
2016-10-25T02:19:58.471Z,0
2016-10-25T02:21:28.746Z,0
2016-10-25T02:22:39.819Z,0
2016-10-25T02:23:50.484Z,0
2016-10-25T02:25:01.055Z,0
2016-10-25T02:26:11.633Z,0
2016-10-25T02:27:22.207Z,0
2016-10-25T02:28:32.786Z,0
2016-10-25T02:29:43.463Z,0
2016-10-25T02:30:54.031Z,0
2016-10-25T02:32:04.604Z,0
2016-10-25T02:33:15.176Z,0
2016-10-25T02:34:26.244Z,0
2016-10-25T02:35:36.822Z,0
2016-10-25T02:36:47.429Z,0
2016-10-25T02:37:58.013Z,0
2016-10-25T02:39:08.594Z,0
2016-10-25T02:40:19.199Z,0
2016-10-25T02:41:29.774Z,0
2016-10-25T02:42:40.351Z,0
2016-10-25T02:43:50.933Z,0
2016-10-25T02:45:01.498Z,0
2016-10-25T02:46:12.075Z,0
2016-10-25T02:47:22.744Z,0
2016-10-25T02:48:33.324Z,0
2016-10-25T02:49:43.900Z,0
2016-10-25T02:50:54.474Z,0
2016-10-25T02:52:05.692Z,0
2016-10-25T02:53:15.758Z,0
2016-10-25T02:54:26.331Z,0
2016-10-25T02:55:36.909Z,0
2016-10-25T02:56:47.491Z,0
2016-10-25T02:57:58.072Z,0
2016-10-25T02:59:08.650Z,0
2016-10-25T03:00:19.215Z,0
2016-10-25T03:01:29.791Z,0
2016-10-25T03:02:40.379Z,0
2016-10-25T03:03:50.975Z,0
2016-10-25T03:05:01.569Z,0
2016-10-25T03:06:12.157Z,0
2016-10-25T03:07:22.731Z,0
2016-10-25T03:08:33.273Z,0
2016-10-25T03:09:43.757Z,0
2016-10-25T03:10:54.504Z,0
2016-10-25T03:12:05.031Z,0
2016-10-25T03:13:15.504Z,0
2016-10-25T03:14:26.050Z,0
2016-10-25T03:15:36.612Z,0
2016-10-25T03:16:47.126Z,0
2016-10-25T03:17:57.637Z,0
2016-10-25T03:19:08.196Z,0
2016-10-25T03:20:18.750Z,0
2016-10-25T03:21:29.293Z,0
2016-10-25T03:22:39.847Z,0
2016-10-25T03:23:50.413Z,0
2016-10-25T03:25:00.931Z,0
2016-10-25T03:26:11.475Z,0
2016-10-25T03:27:22.010Z,0
2016-10-25T03:28:32.683Z,0
2016-10-25T03:29:43.217Z,0
2016-10-25T03:30:54.272Z,0
2016-10-25T03:32:04.825Z,0
2016-10-25T03:33:15.344Z,0
2016-10-25T03:34:25.872Z,0
2016-10-25T03:35:36.887Z,0
2016-10-25T03:36:47.428Z,0
2016-10-25T03:37:57.960Z,0
2016-10-25T03:39:08.545Z,0
2016-10-25T03:40:19.294Z,0
2016-10-25T03:41:29.837Z,0
2016-10-25T03:42:40.347Z,0
2016-10-25T03:43:50.854Z,0
2016-10-25T03:45:01.383Z,0
2016-10-25T03:46:11.994Z,0
2016-10-25T03:47:22.482Z,0
2016-10-25T03:48:33.030Z,0
2016-10-25T03:49:43.577Z,0
2016-10-25T03:50:54.087Z,0
2016-10-25T03:52:04.597Z,0
2016-10-25T03:53:15.098Z,0
2016-10-25T03:54:25.584Z,0
2016-10-25T03:55:36.138Z,0
2016-10-25T03:56:46.676Z,0
2016-10-25T03:57:57.408Z,0
2016-10-25T03:59:07.909Z,0
2016-10-25T04:00:18.414Z,0
2016-10-25T04:01:28.984Z,0
2016-10-25T04:02:39.461Z,0
2016-10-25T04:03:50.099Z,0
2016-10-25T04:05:00.622Z,0
2016-10-25T04:06:11.170Z,0
2016-10-25T04:07:21.708Z,0
2016-10-25T04:08:32.773Z,0
2016-10-25T04:09:43.425Z,0
2016-10-25T04:10:53.972Z,0
2016-10-25T04:12:04.549Z,0
2016-10-25T04:13:15.116Z,0
2016-10-25T04:14:25.620Z,0
2016-10-25T04:15:36.341Z,0
2016-10-25T04:16:46.950Z,0
2016-10-25T04:17:57.524Z,0
2016-10-25T04:19:08.533Z,0
2016-10-25T04:20:19.036Z,0
2016-10-25T04:21:29.567Z,0
2016-10-25T04:22:40.132Z,0
2016-10-25T04:23:50.704Z,0
2016-10-25T04:25:01.250Z,0
2016-10-25T04:26:11.789Z,0
2016-10-25T04:27:22.504Z,0
2016-10-25T04:28:33.068Z,0
2016-10-25T04:29:43.584Z,0
2016-10-25T04:30:54.155Z,0
2016-10-25T04:32:05.226Z,0
2016-10-25T04:33:15.902Z,0
2016-10-25T04:34:26.425Z,0
2016-10-25T04:35:36.955Z,0
2016-10-25T04:36:47.498Z,0
2016-10-25T04:37:58.068Z,0
2016-10-25T04:39:08.753Z,0
2016-10-25T04:40:19.290Z,0
2016-10-25T04:41:30.343Z,0
2016-10-25T04:42:40.856Z,0
2016-10-25T04:43:51.379Z,0
2016-10-25T04:45:01.897Z,0
2016-10-25T04:46:12.410Z,0
2016-10-25T04:47:22.923Z,0
2016-10-25T04:48:33.476Z,0
2016-10-25T04:49:44.044Z,0
2016-10-25T04:50:54.840Z,0
2016-10-25T04:52:05.321Z,0
2016-10-25T04:53:15.816Z,0
2016-10-25T04:54:26.334Z,0
2016-10-25T04:55:36.855Z,0
2016-10-25T04:56:47.396Z,0
2016-10-25T04:57:57.931Z,0
2016-10-25T04:59:08.933Z,0
2016-10-25T05:00:19.515Z,0
2016-10-25T05:01:30.009Z,0
2016-10-25T05:02:40.571Z,0
2016-10-25T05:03:51.578Z,0
2016-10-25T05:05:02.100Z,0
2016-10-25T05:06:12.640Z,0
2016-10-25T05:07:23.165Z,0
2016-10-25T05:08:33.811Z,0
2016-10-25T05:09:44.388Z,0
2016-10-25T05:10:54.961Z,0
2016-10-25T05:12:05.504Z,0
2016-10-25T05:13:16.066Z,0
2016-10-25T05:14:26.669Z,0
2016-10-25T05:15:37.194Z,0
2016-10-25T05:16:47.725Z,0
2016-10-25T05:17:58.275Z,0
2016-10-25T05:19:52.736Z,0
2016-10-25T05:21:03.242Z,0
2016-10-25T05:22:13.791Z,0
2016-10-25T05:23:24.338Z,0
2016-10-25T05:24:34.933Z,0
2016-10-25T05:25:45.423Z,0
2016-10-25T05:26:56.073Z,0
2016-10-25T05:28:06.604Z,0
2016-10-25T05:29:17.616Z,0
2016-10-25T05:30:28.159Z,0
2016-10-25T05:31:38.702Z,0
2016-10-25T05:32:49.352Z,0
2016-10-25T05:33:59.829Z,0
2016-10-25T05:35:10.372Z,0
2016-10-25T05:36:20.890Z,0
2016-10-25T05:37:31.392Z,0
2016-10-25T05:38:41.972Z,0
2016-10-25T05:39:52.570Z,0
2016-10-25T05:41:03.104Z,0
2016-10-25T05:42:13.674Z,0
2016-10-25T05:43:24.202Z,0
2016-10-25T05:44:34.736Z,0
2016-10-25T05:45:45.275Z,0
2016-10-25T05:46:55.778Z,0
2016-10-25T05:48:06.330Z,0
2016-10-25T05:49:16.874Z,0
2016-10-25T05:50:27.462Z,0
2016-10-25T05:51:37.943Z,0
2016-10-25T05:52:48.441Z,0
2016-10-25T05:53:58.988Z,0
2016-10-25T05:55:09.602Z,0
2016-10-25T05:56:20.159Z,0
2016-10-25T05:57:30.646Z,0
2016-10-25T05:58:41.150Z,0
2016-10-25T05:59:51.687Z,0
2016-10-25T06:01:02.201Z,0
2016-10-25T06:02:12.775Z,0
2016-10-25T06:03:23.350Z,0
2016-10-25T06:04:33.901Z,0
2016-10-25T06:05:44.436Z,0
2016-10-25T06:06:54.976Z,0
2016-10-25T06:08:05.543Z,0
2016-10-25T06:09:16.005Z,0
2016-10-25T06:10:26.464Z,0
2016-10-25T06:11:36.918Z,0
2016-10-25T06:12:47.371Z,0
2016-10-25T06:13:57.944Z,0
2016-10-25T06:15:08.399Z,0
2016-10-25T06:16:18.868Z,0
2016-10-25T06:17:29.329Z,0
2016-10-25T06:18:39.775Z,0
2016-10-25T06:19:50.237Z,0
2016-10-25T06:21:00.724Z,0
2016-10-25T06:22:11.176Z,0
2016-10-25T06:23:21.645Z,0
2016-10-25T06:24:32.093Z,0
2016-10-25T06:25:42.552Z,0
2016-10-25T06:26:53.042Z,0
2016-10-25T06:28:03.486Z,0
2016-10-25T06:29:14.415Z,0
2016-10-25T06:30:24.881Z,0
2016-10-25T06:31:35.457Z,0
2016-10-25T06:32:45.924Z,0
2016-10-25T06:33:56.386Z,0
2016-10-25T06:35:06.845Z,0
2016-10-25T06:36:17.301Z,0
2016-10-25T06:37:27.860Z,0
2016-10-25T06:38:38.369Z,0
2016-10-25T06:39:48.872Z,0
2016-10-25T06:40:59.857Z,0
2016-10-25T06:42:10.370Z,0
2016-10-25T06:43:20.871Z,0
2016-10-25T06:44:31.367Z,0
2016-10-25T06:45:41.859Z,0
2016-10-25T06:46:52.805Z,0
2016-10-25T06:48:03.310Z,0
2016-10-25T06:49:13.828Z,0
2016-10-25T06:50:24.299Z,0
2016-10-25T06:51:34.813Z,0
2016-10-25T06:52:45.298Z,0
2016-10-25T06:53:56.276Z,0
2016-10-25T06:55:06.873Z,0
2016-10-25T06:56:17.397Z,0
2016-10-25T06:57:27.938Z,0
2016-10-25T06:58:38.878Z,0
2016-10-25T06:59:49.334Z,0
2016-10-25T07:00:59.914Z,0
2016-10-25T07:02:10.405Z,0
2016-10-25T07:03:20.882Z,0
2016-10-25T07:04:31.347Z,0
2016-10-25T07:05:41.889Z,0
2016-10-25T07:06:52.354Z,0
2016-10-25T07:08:03.318Z,0
2016-10-25T07:09:13.798Z,0
2016-10-25T07:10:24.273Z,0
2016-10-25T07:11:35.269Z,0
2016-10-25T07:12:46.334Z,0
2016-10-25T07:13:57.310Z,0
2016-10-25T07:15:07.808Z,0
2016-10-25T07:16:18.294Z,0
2016-10-25T07:17:28.823Z,0
2016-10-25T07:18:39.470Z,0
2016-10-25T07:19:49.930Z,0
2016-10-25T07:21:00.406Z,0
2016-10-25T07:22:10.889Z,0
2016-10-25T07:23:21.362Z,0
2016-10-25T07:24:31.975Z,0
2016-10-25T07:25:42.493Z,0
2016-10-25T07:26:53.033Z,0
2016-10-25T07:28:03.520Z,0
2016-10-25T07:29:14.065Z,0
2016-10-25T07:30:24.562Z,0
2016-10-25T07:31:35.071Z,0
2016-10-25T07:32:45.589Z,0
2016-10-25T07:33:56.123Z,0
2016-10-25T07:35:06.632Z,0
2016-10-25T07:36:17.156Z,0
2016-10-25T07:37:27.630Z,0
2016-10-25T07:38:38.113Z,0
2016-10-25T07:39:48.577Z,0
2016-10-25T07:40:59.087Z,0
2016-10-25T07:42:09.661Z,0
2016-10-25T07:43:20.171Z,0
2016-10-25T07:44:30.657Z,0
2016-10-25T07:45:41.174Z,0
2016-10-25T07:46:51.644Z,0
2016-10-25T07:48:02.283Z,0
2016-10-25T07:49:12.825Z,0
2016-10-25T07:50:23.404Z,0
2016-10-25T07:51:33.940Z,0
2016-10-25T07:52:44.482Z,0
2016-10-25T07:53:55.002Z,0
2016-10-25T07:55:05.583Z,0
2016-10-25T07:56:16.110Z,0
2016-10-25T07:57:26.623Z,0
2016-10-25T07:58:37.226Z,0
2016-10-25T07:59:47.788Z,0
2016-10-25T08:00:58.327Z,0
2016-10-25T08:02:08.783Z,0
2016-10-25T08:03:19.303Z,0
2016-10-25T08:04:29.810Z,0
2016-10-25T08:05:40.442Z,0
2016-10-25T08:06:50.989Z,0
2016-10-25T08:08:01.538Z,4
2016-10-25T08:09:12.077Z,4
2016-10-25T08:10:22.612Z,4
2016-10-25T08:11:33.726Z,8
2016-10-25T08:12:44.266Z,8
2016-10-25T08:13:54.817Z,12
2016-10-25T08:15:05.422Z,12
2016-10-25T08:16:15.965Z,20
2016-10-25T08:17:26.512Z,24
2016-10-25T08:18:37.577Z,28
2016-10-25T08:19:48.079Z,36
2016-10-25T08:20:58.628Z,40
2016-10-25T08:22:09.227Z,48
2016-10-25T08:23:19.813Z,56
2016-10-25T08:24:30.374Z,68
2016-10-25T08:25:40.953Z,80
2016-10-25T08:26:51.562Z,92
2016-10-25T08:28:02.148Z,108
2016-10-25T08:29:12.823Z,128
2016-10-25T08:30:23.411Z,148
2016-10-25T08:31:34.476Z,180
2016-10-25T08:32:45.543Z,212
2016-10-25T08:33:56.113Z,252
2016-10-25T08:35:06.834Z,312
2016-10-25T08:36:17.407Z,364
2016-10-25T08:37:27.990Z,428
2016-10-25T08:38:38.591Z,512
2016-10-25T08:39:49.164Z,584
2016-10-25T08:40:59.765Z,664
2016-10-25T08:42:10.341Z,772
2016-10-25T08:43:20.929Z,908
2016-10-25T08:44:31.496Z,992
2016-10-25T08:45:42.066Z,952
2016-10-25T08:46:52.645Z,952
2016-10-25T08:48:03.702Z,1016
2016-10-25T08:49:14.275Z,1048
2016-10-25T08:50:24.839Z,1076
2016-10-25T08:51:35.413Z,1132
2016-10-25T08:52:46.643Z,1284
2016-10-25T08:53:57.223Z,1240
2016-10-25T08:55:07.805Z,1348
2016-10-25T08:56:18.378Z,1596
2016-10-25T08:57:28.944Z,1740
2016-10-25T08:58:39.607Z,1812
2016-10-25T08:59:50.176Z,1764
2016-10-25T09:01:00.749Z,1836
2016-10-25T09:02:11.314Z,1916
2016-10-25T09:03:21.899Z,1868
2016-10-25T09:04:32.473Z,1744
2016-10-25T09:05:43.049Z,1756
2016-10-25T09:06:53.618Z,1844
2016-10-25T09:08:04.190Z,1992
2016-10-25T09:09:14.775Z,2204
2016-10-25T09:10:25.453Z,2484
2016-10-25T09:11:36.030Z,2512
2016-10-25T09:12:46.604Z,2656
2016-10-25T09:13:57.189Z,2576
2016-10-25T09:15:07.806Z,2824
2016-10-25T09:16:18.489Z,2780
2016-10-25T09:17:29.558Z,3012
2016-10-25T09:18:40.132Z,3372
2016-10-25T09:19:50.702Z,3572
2016-10-25T09:21:01.264Z,3800
2016-10-25T09:22:11.840Z,3888
2016-10-25T09:23:22.909Z,3928
2016-10-25T09:24:33.481Z,4144
2016-10-25T09:25:44.062Z,4432
2016-10-25T09:26:54.628Z,4716
2016-10-25T09:28:05.316Z,4876
2016-10-25T09:29:15.914Z,4968
2016-10-25T09:30:26.493Z,4588
2016-10-25T09:31:37.055Z,4700
2016-10-25T09:32:47.671Z,4244
2016-10-25T09:33:58.345Z,4228
2016-10-25T09:35:08.914Z,4380
2016-10-25T09:36:19.498Z,4736
2016-10-25T09:37:30.074Z,4860
2016-10-25T09:38:40.660Z,4684
2016-10-25T09:39:51.226Z,4348
2016-10-25T09:41:01.802Z,4836
2016-10-25T09:42:12.374Z,4224
2016-10-25T09:43:22.948Z,4276
2016-10-25T09:44:33.548Z,4116
2016-10-25T09:45:44.221Z,4280
2016-10-25T09:46:54.797Z,4184
2016-10-25T09:48:05.375Z,4812
2016-10-25T09:49:16.002Z,5116
2016-10-25T09:50:26.579Z,5020
2016-10-25T09:51:37.236Z,5452
2016-10-25T09:52:47.815Z,5364
2016-10-25T09:53:58.384Z,5152
2016-10-25T09:55:08.960Z,5060
2016-10-25T09:56:19.543Z,5076
2016-10-25T09:57:30.116Z,5192
2016-10-25T09:58:40.728Z,5200
2016-10-25T09:59:51.313Z,4916
2016-10-25T10:01:01.837Z,5396
2016-10-25T10:02:12.342Z,5348
2016-10-25T10:03:22.954Z,5356
2016-10-25T10:04:33.476Z,5156
2016-10-25T10:05:43.932Z,5236
2016-10-25T10:06:54.518Z,5224
2016-10-25T10:08:05.069Z,5308
2016-10-25T10:09:15.779Z,5472
2016-10-25T10:10:26.264Z,5660
2016-10-25T10:11:36.738Z,6632
2016-10-25T10:12:47.211Z,7728
2016-10-25T10:13:57.686Z,8172
2016-10-25T10:15:08.154Z,8744
2016-10-25T10:16:18.657Z,9148
2016-10-25T10:17:29.129Z,9844
2016-10-25T10:18:39.629Z,9392
2016-10-25T10:19:50.131Z,9896
2016-10-25T10:21:00.741Z,10760
2016-10-25T10:22:11.242Z,11548
2016-10-25T10:23:21.736Z,13156
2016-10-25T10:24:32.216Z,14380
2016-10-25T10:25:42.754Z,15708
2016-10-25T10:26:53.349Z,18144
2016-10-25T10:28:03.803Z,19008
2016-10-25T10:29:14.289Z,18880
2016-10-25T10:30:24.789Z,19232
2016-10-25T10:31:35.268Z,17060
2016-10-25T10:32:45.889Z,17464
2016-10-25T10:33:56.439Z,14020
2016-10-25T10:35:06.952Z,17320
2016-10-25T10:36:17.440Z,18496
2016-10-25T10:37:27.940Z,19232
2016-10-25T10:38:38.504Z,16372
2016-10-25T10:39:49.032Z,17984
2016-10-25T10:40:59.571Z,21088
2016-10-25T10:42:10.074Z,22848
2016-10-25T10:43:20.605Z,23392
2016-10-25T10:44:31.122Z,24960
2016-10-25T10:45:41.632Z,25312
2016-10-25T10:46:52.150Z,33600
2016-10-25T10:48:02.654Z,36416
2016-10-25T10:49:13.182Z,25440
2016-10-25T10:50:23.872Z,21024
2016-10-25T10:51:34.349Z,17664
2016-10-25T10:52:44.867Z,15196
2016-10-25T10:53:55.909Z,13904
2016-10-25T10:55:06.402Z,12736
2016-10-25T10:56:16.909Z,13892
2016-10-25T10:57:27.415Z,13656
2016-10-25T10:58:37.884Z,13444
2016-10-25T10:59:48.449Z,12292
2016-10-25T11:00:58.969Z,11732
2016-10-25T11:02:09.579Z,12540
2016-10-25T11:03:20.120Z,10988
2016-10-25T11:04:30.618Z,11200
2016-10-25T11:05:41.106Z,11324
2016-10-25T11:06:51.632Z,10584
2016-10-25T11:08:02.265Z,12236
2016-10-25T11:09:12.778Z,11784
2016-10-25T11:10:23.302Z,11476
2016-10-25T11:11:33.889Z,9536
2016-10-25T11:12:44.449Z,10004
2016-10-25T11:13:55.571Z,12108
2016-10-25T11:15:06.556Z,13904
2016-10-25T11:16:17.113Z,14836
2016-10-25T11:17:27.717Z,14064
2016-10-25T11:18:38.207Z,12400
2016-10-25T11:19:48.687Z,10220
2016-10-25T11:20:59.218Z,10304
2016-10-25T11:22:09.710Z,9772
2016-10-25T11:23:20.262Z,11164
2016-10-25T11:24:30.830Z,9964
2016-10-25T11:25:41.475Z,9244
2016-10-25T11:26:51.987Z,14880
2016-10-25T11:28:02.562Z,13924
2016-10-25T11:29:13.127Z,12556
2016-10-25T11:30:23.657Z,12876
2016-10-25T11:31:34.293Z,16144
2016-10-25T11:32:44.851Z,16860
2016-10-25T11:33:55.426Z,15772
2016-10-25T11:35:05.916Z,15764
2016-10-25T11:36:16.507Z,15892
2016-10-25T11:37:27.170Z,15988
2016-10-25T11:38:37.699Z,15960
2016-10-25T11:39:48.176Z,15612
2016-10-25T11:40:59.175Z,14988
2016-10-25T11:42:09.655Z,14372
2016-10-25T11:43:20.198Z,13516
2016-10-25T11:44:30.784Z,13232
2016-10-25T11:45:41.320Z,13408
2016-10-25T11:46:51.829Z,13688
2016-10-25T11:48:02.361Z,13872
2016-10-25T11:49:13.032Z,14536
2016-10-25T11:50:23.643Z,14816
2016-10-25T11:51:35.108Z,15092
2016-10-25T11:52:45.620Z,15572
2016-10-25T11:53:56.160Z,16392
2016-10-25T11:55:06.721Z,17664
2016-10-25T11:56:17.277Z,18688
2016-10-25T11:57:27.828Z,19232
2016-10-25T11:58:38.339Z,19392
2016-10-25T11:59:48.887Z,19296
2016-10-25T12:00:59.564Z,19072
2016-10-25T12:02:10.141Z,19296
2016-10-25T12:03:20.693Z,20000
2016-10-25T12:04:31.212Z,21216
2016-10-25T12:05:41.749Z,22624
2016-10-25T12:06:52.368Z,23712
2016-10-25T12:08:02.904Z,24448
2016-10-25T12:09:13.444Z,24640
2016-10-25T12:10:23.975Z,24416
2016-10-25T12:11:34.524Z,24032
2016-10-25T12:12:45.505Z,23840
2016-10-25T12:13:56.074Z,23584
2016-10-25T12:15:06.603Z,23328
2016-10-25T12:16:17.153Z,23008
2016-10-25T12:17:27.669Z,22880
2016-10-25T12:18:38.318Z,23232
2016-10-25T12:19:48.858Z,24000
2016-10-25T12:20:59.466Z,24832
2016-10-25T12:22:10.024Z,25120
2016-10-25T12:23:20.554Z,24672
2016-10-25T12:24:31.176Z,23552
2016-10-25T12:25:41.725Z,22592
2016-10-25T12:26:52.252Z,21952
2016-10-25T12:28:03.279Z,21184
2016-10-25T12:29:13.816Z,20160
2016-10-25T12:30:24.404Z,19040
2016-10-25T12:31:34.944Z,18112
2016-10-25T12:32:45.468Z,17384
2016-10-25T12:33:56.031Z,17140
2016-10-25T12:35:07.047Z,17092
2016-10-25T12:36:17.664Z,17100
2016-10-25T12:37:28.677Z,17184
2016-10-25T12:38:39.236Z,17424
2016-10-25T12:39:49.784Z,18176
2016-10-25T12:41:00.328Z,18976
2016-10-25T12:42:10.837Z,19744
2016-10-25T12:43:21.393Z,20448
2016-10-25T12:44:31.952Z,21344
2016-10-25T12:45:42.457Z,22400
2016-10-25T12:46:52.962Z,23712
2016-10-25T12:48:03.583Z,24640
2016-10-25T12:49:14.111Z,25088
2016-10-25T12:50:24.595Z,24544
2016-10-25T12:51:35.131Z,23264
2016-10-25T12:52:45.652Z,21728
2016-10-25T12:53:56.274Z,20064
2016-10-25T12:55:06.855Z,18272
2016-10-25T12:56:17.399Z,16580
2016-10-25T12:57:27.942Z,15416
2016-10-25T12:58:38.439Z,14592
2016-10-25T12:59:49.059Z,14124
2016-10-25T13:00:59.602Z,13976
2016-10-25T13:02:10.112Z,14276
2016-10-25T13:03:20.672Z,14888
2016-10-25T13:04:31.177Z,15596
2016-10-25T13:05:41.728Z,16312
2016-10-25T13:06:52.257Z,17180
2016-10-25T13:08:02.791Z,18048
2016-10-25T13:09:13.366Z,18816
2016-10-25T13:10:23.868Z,19424
2016-10-25T13:11:34.533Z,19744
2016-10-25T13:12:45.064Z,20032
2016-10-25T13:13:55.580Z,20160
2016-10-25T13:15:06.187Z,20352
2016-10-25T13:16:16.753Z,20608
2016-10-25T13:17:27.389Z,20896
2016-10-25T13:18:37.893Z,20960
2016-10-25T13:19:48.429Z,21024
2016-10-25T13:20:58.984Z,21088
2016-10-25T13:22:09.567Z,21344
2016-10-25T13:23:20.141Z,21632
2016-10-25T13:24:31.262Z,21952
2016-10-25T13:25:42.340Z,22240
2016-10-25T13:26:52.920Z,22496
2016-10-25T13:28:03.491Z,22752
2016-10-25T13:29:14.175Z,23040
2016-10-25T13:30:25.257Z,23168
2016-10-25T13:31:36.327Z,22688
2016-10-25T13:32:46.908Z,22240
2016-10-25T13:33:57.495Z,21504
2016-10-25T13:35:08.126Z,20928
2016-10-25T13:36:18.717Z,20640
2016-10-25T13:37:29.298Z,20448
2016-10-25T13:38:39.878Z,20768
2016-10-25T13:39:50.503Z,21280
2016-10-25T13:41:01.234Z,21600
2016-10-25T13:42:11.810Z,22560
2016-10-25T13:43:22.382Z,23360
2016-10-25T13:44:32.970Z,23968
2016-10-25T13:45:43.541Z,24352
2016-10-25T13:46:54.225Z,24704
2016-10-25T13:48:04.800Z,23712
2016-10-25T13:49:15.377Z,21760
2016-10-25T13:50:25.954Z,22336
2016-10-25T13:51:36.531Z,23488
2016-10-25T13:52:47.217Z,24096
2016-10-25T13:53:57.785Z,24032
2016-10-25T13:55:08.370Z,23808
2016-10-25T13:56:18.950Z,23680
2016-10-25T13:57:29.533Z,23776
2016-10-25T13:58:40.130Z,23648
2016-10-25T13:59:50.712Z,23936
2016-10-25T14:01:01.301Z,23552
2016-10-25T14:02:12.587Z,23264
2016-10-25T14:03:23.665Z,24960
2016-10-25T14:04:34.328Z,26400
2016-10-25T14:05:44.908Z,28192
2016-10-25T14:06:55.484Z,30624
2016-10-25T14:08:06.109Z,32000
2016-10-25T14:09:17.191Z,32896
2016-10-25T14:10:27.865Z,33920
2016-10-25T14:11:38.445Z,35392
2016-10-25T14:12:49.024Z,36192
2016-10-25T14:13:59.606Z,36576
2016-10-25T14:15:10.195Z,36640
2016-10-25T14:16:20.784Z,37184
2016-10-25T14:17:31.382Z,37728
2016-10-25T14:18:41.999Z,38656
2016-10-25T14:19:52.622Z,40416
2016-10-25T14:21:03.227Z,42720
2016-10-25T14:22:13.905Z,43296
2016-10-25T14:23:24.500Z,43616
2016-10-25T14:24:35.574Z,42720
2016-10-25T14:25:46.656Z,41504
2016-10-25T14:26:57.248Z,39456
2016-10-25T14:28:07.840Z,37664
2016-10-25T14:29:18.392Z,36960
2016-10-25T14:30:28.914Z,37088
2016-10-25T14:31:39.473Z,38400
2016-10-25T14:32:50.528Z,41376
2016-10-25T14:34:01.132Z,46400
2016-10-25T14:35:11.671Z,54848
2016-10-25T14:36:22.220Z,57056
2016-10-25T14:37:32.707Z,52544
2016-10-25T14:38:43.230Z,46240
2016-10-25T14:39:53.780Z,41888
2016-10-25T14:41:04.356Z,37760
2016-10-25T14:42:14.920Z,34400
2016-10-25T14:43:25.484Z,31680
2016-10-25T14:44:36.562Z,30112
2016-10-25T14:45:47.214Z,28224
2016-10-25T14:46:58.198Z,26592
2016-10-25T14:48:08.751Z,23616
2016-10-25T14:49:19.288Z,23520
2016-10-25T14:50:30.343Z,23808
2016-10-25T14:51:41.373Z,24544
2016-10-25T14:52:51.904Z,24576
2016-10-25T14:54:02.484Z,24192
2016-10-25T14:55:13.556Z,22400
2016-10-25T14:56:24.101Z,20512
2016-10-25T14:57:34.770Z,18912
2016-10-25T14:58:45.347Z,17888
2016-10-25T14:59:55.877Z,16520
2016-10-25T15:01:06.432Z,15560
2016-10-25T15:02:16.928Z,14632
2016-10-25T15:03:27.570Z,14032
2016-10-25T15:04:38.092Z,13764
2016-10-25T15:05:49.147Z,14060
2016-10-25T15:06:59.692Z,15012
2016-10-25T15:08:10.236Z,15360
2016-10-25T15:09:25.799Z,15544
2016-10-25T15:10:36.351Z,15048
2016-10-25T15:11:46.912Z,14352
2016-10-25T15:12:57.411Z,13852
2016-10-25T15:14:07.927Z,13960
2016-10-25T15:15:18.626Z,14756
2016-10-25T15:16:29.142Z,16048
2016-10-25T15:17:39.681Z,16868
2016-10-25T15:18:50.208Z,19616
2016-10-25T15:20:00.713Z,21536
2016-10-25T15:21:11.335Z,21184
2016-10-25T15:22:22.419Z,18816
2016-10-25T15:23:32.962Z,16452
2016-10-25T15:24:43.520Z,15500
2016-10-25T15:25:54.050Z,14736
2016-10-25T15:27:04.667Z,14340
2016-10-25T15:28:15.212Z,14520
2016-10-25T15:29:25.798Z,14840
2016-10-25T15:30:36.350Z,15512
2016-10-25T15:31:46.887Z,16000
2016-10-25T15:32:57.522Z,16644
2016-10-25T15:34:08.558Z,17212
2016-10-25T15:35:19.091Z,17388
2016-10-25T15:36:29.639Z,17292
2016-10-25T15:37:40.185Z,16820
2016-10-25T15:38:50.787Z,15796
2016-10-25T15:40:01.315Z,14656
2016-10-25T15:41:11.851Z,13940
2016-10-25T15:42:22.374Z,13764
2016-10-25T15:43:32.886Z,14180
2016-10-25T15:44:43.408Z,15360
2016-10-25T15:45:53.973Z,17332
2016-10-25T15:47:04.553Z,20064
2016-10-25T15:48:15.125Z,22304
2016-10-25T15:49:25.702Z,23776
2016-10-25T15:50:36.339Z,24352
2016-10-25T15:51:46.888Z,24416
2016-10-25T15:52:57.448Z,24448
2016-10-25T15:54:07.956Z,24832
2016-10-25T15:55:18.502Z,25536
2016-10-25T15:56:29.172Z,26304
2016-10-25T15:57:39.741Z,26240
2016-10-25T15:58:50.316Z,25664
2016-10-25T16:00:00.938Z,24800
2016-10-25T16:01:11.533Z,24160
2016-10-25T16:02:22.197Z,23808
2016-10-25T16:03:32.742Z,23104
2016-10-25T16:04:43.253Z,22208
2016-10-25T16:05:53.806Z,20832
2016-10-25T16:07:04.355Z,19776
2016-10-25T16:08:15.024Z,19168
2016-10-25T16:09:25.545Z,19360
2016-10-25T16:10:36.001Z,19872
2016-10-25T16:11:47.439Z,20416
2016-10-25T16:12:57.911Z,20864
2016-10-25T16:14:08.956Z,21600
2016-10-25T16:15:20.392Z,21984
2016-10-25T16:16:30.941Z,21760
2016-10-25T16:17:41.399Z,21312
2016-10-25T16:18:51.861Z,20992
2016-10-25T16:20:03.428Z,20672